createdAt,value
2019-04-01T00:01:38.450Z,31.67
2019-04-01T00:04:36.335Z,30.77
2019-04-01T00:07:37.708Z,30.70
2019-04-01T00:10:32.177Z,30.93
2019-04-01T00:13:42.520Z,32.33
2019-04-01T00:16:36.125Z,30.60
2019-04-01T00:19:29.088Z,31.47
2019-04-01T00:22:33.808Z,30.53
2019-04-01T00:25:33.109Z,30.13
2019-04-01T00:28:26.120Z,29.57
2019-04-01T00:31:19.225Z,29.47
2019-04-01T00:34:33.389Z,30.43
2019-04-01T00:37:27.458Z,29.73
2019-04-01T00:40:21.531Z,29.17
2019-04-01T00:43:40.083Z,29.60
2019-04-01T00:46:30.915Z,31.17
2019-04-01T00:49:32.268Z,29.63
2019-04-01T00:52:22.943Z,31.33
2019-04-01T00:55:13.868Z,29.40
2019-04-01T00:58:14.997Z,32.07
2019-04-01T01:01:04.449Z,30.97
2019-04-01T01:03:54.576Z,29.10
2019-04-01T01:06:44.637Z,29.80
2019-04-01T01:09:38.934Z,28.97
2019-04-01T01:12:33.650Z,30.00
2019-04-01T01:15:24.386Z,30.87
2019-04-01T01:18:26.008Z,30.83
2019-04-01T01:21:37.451Z,29.20
2019-04-01T01:24:26.035Z,28.90
2019-04-01T01:27:21.255Z,29.93
2019-04-01T01:30:17.061Z,28.77
2019-04-01T01:33:10.528Z,29.57
2019-04-01T01:36:00.149Z,30.60
2019-04-01T01:38:51.008Z,28.57
2019-04-01T01:41:51.047Z,28.90
2019-04-01T01:44:48.182Z,29.07
2019-04-01T01:47:39.105Z,28.30
2019-04-01T01:50:59.184Z,30.30
2019-04-01T01:53:50.047Z,29.87
2019-04-01T01:56:51.649Z,29.77
2019-04-01T01:59:39.808Z,30.37
2019-04-01T02:02:29.570Z,31.20
2019-04-01T02:05:24.979Z,29.77
2019-04-01T02:08:17.403Z,29.47
2019-04-01T02:11:05.689Z,29.03
2019-04-01T02:13:58.611Z,30.00
2019-04-01T02:16:49.633Z,30.37
2019-04-01T02:20:01.456Z,30.27
2019-04-01T02:22:57.573Z,29.50
2019-04-01T02:25:50.228Z,30.47
2019-04-01T02:28:38.838Z,27.70
2019-04-01T02:31:31.408Z,29.40
2019-04-01T02:34:28.889Z,29.47
2019-04-01T02:37:25.726Z,28.70
2019-04-01T02:40:31.065Z,29.37
2019-04-01T02:43:22.873Z,28.87
2019-04-01T02:46:18.453Z,29.20
2019-04-01T02:49:23.358Z,30.03
2019-04-01T02:52:11.663Z,29.53
2019-04-01T02:55:06.381Z,30.20
2019-04-01T02:58:01.713Z,30.17
2019-04-01T03:00:53.484Z,30.97
2019-04-01T03:03:43.820Z,29.77
2019-04-01T03:06:32.531Z,31.97
2019-04-01T03:09:20.433Z,30.43
2019-04-01T03:12:10.889Z,30.20
2019-04-01T03:15:04.660Z,30.03
2019-04-01T03:17:57.926Z,29.83
2019-04-01T03:20:45.452Z,28.83
2019-04-01T03:24:01.219Z,29.00
2019-04-01T03:26:48.681Z,28.50
2019-04-01T03:29:55.274Z,29.40
2019-04-01T03:32:51.633Z,28.83
2019-04-01T03:35:45.003Z,30.30
2019-04-01T03:38:35.383Z,28.33
2019-04-01T03:41:58.329Z,28.70
2019-04-01T03:44:49.544Z,29.83
2019-04-01T03:47:56.817Z,29.93
2019-04-01T03:50:48.489Z,30.47
2019-04-01T03:57:47.189Z,29.10
2019-04-01T04:00:38.316Z,30.90
2019-04-01T04:03:37.423Z,30.20
2019-04-01T04:10:17.439Z,30.27
2019-04-01T04:13:21.275Z,27.97
2019-04-01T04:16:03.603Z,29.83
2019-04-01T04:18:51.926Z,31.97
2019-04-01T04:22:05.574Z,31.23
2019-04-01T04:25:01.034Z,29.57
2019-04-01T04:27:57.347Z,32.03
2019-04-01T04:30:51.645Z,29.03
2019-04-01T04:38:09.876Z,31.17
2019-04-01T04:45:53.138Z,30.20
2019-04-01T04:53:33.017Z,29.80
2019-04-01T04:56:44.857Z,29.77
2019-04-01T05:08:26.245Z,30.20
2019-04-01T05:15:54.965Z,28.50
2019-04-01T05:22:49.493Z,29.33
2019-04-01T05:26:33.211Z,28.47
2019-04-01T05:30:18.216Z,29.77
2019-04-01T05:33:18.838Z,28.77
2019-04-01T05:36:49.447Z,28.70
2019-04-01T05:39:41.274Z,30.83
2019-04-01T05:42:29.640Z,29.13
2019-04-01T05:45:33.198Z,31.53
2019-04-01T05:48:21.641Z,32.40
2019-04-01T05:51:11.969Z,32.90
2019-04-01T05:53:59.833Z,32.73
2019-04-01T05:56:51.130Z,33.37
2019-04-01T05:59:45.309Z,33.57
2019-04-01T06:02:34.951Z,32.23
2019-04-01T06:05:36.295Z,33.93
2019-04-01T06:08:27.472Z,33.90
2019-04-01T06:11:18.631Z,33.10
2019-04-01T06:14:06.703Z,31.83
2019-04-01T06:16:54.612Z,33.37
2019-04-01T06:19:52.816Z,31.43
2019-04-01T06:22:40.349Z,33.50
2019-04-01T06:25:37.611Z,33.07
2019-04-01T06:28:25.608Z,32.83
2019-04-01T06:31:14.789Z,32.23
2019-04-01T06:34:03.562Z,32.00
2019-04-01T06:36:51.851Z,31.67
2019-04-01T06:39:39.786Z,32.87
2019-04-01T06:42:27.420Z,32.37
2019-04-01T06:45:18.972Z,31.43
2019-04-01T06:48:25.039Z,34.03
2019-04-01T06:51:39.187Z,32.97
2019-04-01T06:54:30.114Z,31.53
2019-04-01T06:57:33.623Z,35.37
2019-04-01T07:00:21.636Z,31.77
2019-04-01T07:03:11.359Z,32.87
2019-04-01T07:06:03.627Z,32.73
2019-04-01T07:09:15.387Z,32.53
2019-04-01T07:12:03.682Z,32.53
2019-04-01T07:14:59.133Z,33.27
2019-04-01T07:17:48.818Z,32.63
2019-04-01T07:20:47.156Z,32.87
2019-04-01T07:26:34.099Z,31.80
2019-04-01T07:29:28.546Z,32.43
2019-04-01T07:32:47.832Z,31.03
2019-04-01T07:35:39.789Z,31.47
2019-04-01T07:38:27.391Z,31.73
2019-04-01T07:41:33.608Z,31.20
2019-04-01T07:44:21.847Z,31.77
2019-04-01T07:47:09.998Z,29.77
2019-04-01T07:50:05.703Z,31.70
2019-04-01T07:53:04.502Z,31.90
2019-04-01T07:56:02.377Z,30.53
2019-04-01T07:58:48.109Z,31.13
2019-04-01T08:02:09.969Z,30.63
2019-04-01T08:04:58.553Z,29.37
2019-04-01T08:07:47.626Z,30.60
2019-04-01T08:10:35.970Z,30.60
2019-04-01T08:13:29.700Z,31.07
2019-04-01T08:16:17.663Z,29.70
2019-04-01T08:19:05.780Z,31.37
2019-04-01T08:21:54.437Z,31.60
2019-04-01T08:29:29.978Z,29.77
2019-04-01T08:36:53.273Z,30.27
2019-04-01T08:58:54.456Z,30.10
2019-04-01T09:02:18.585Z,29.47
2019-04-01T09:05:44.072Z,29.40
2019-04-01T09:09:18.277Z,28.67
2019-04-01T09:16:21.521Z,29.40
2019-04-01T09:28:04.536Z,28.50
2019-04-01T09:35:50.815Z,27.67
2019-04-01T09:42:33.451Z,28.67
2019-04-01T09:53:32.702Z,28.10
2019-04-01T10:12:10.300Z,25.73
2019-04-01T10:22:43.085Z,27.10
2019-04-01T10:26:16.178Z,30.20
2019-04-01T10:37:53.330Z,27.13
2019-04-01T10:41:19.218Z,26.97
2019-04-01T10:43:58.481Z,26.30
2019-04-01T10:51:18.381Z,24.83
2019-04-01T10:54:49.104Z,24.47
2019-04-01T11:02:24.103Z,24.00
2019-04-01T11:06:07.695Z,25.30
2019-04-01T11:20:45.507Z,22.07
2019-04-01T11:24:07.769Z,23.90
2019-04-01T11:34:48.168Z,22.17
2019-04-01T11:42:40.395Z,22.97
2019-04-01T11:54:18.096Z,23.17
2019-04-01T11:57:49.442Z,21.90
2019-04-01T12:01:13.115Z,21.57
2019-04-01T12:04:49.482Z,22.00
2019-04-01T12:08:11.566Z,21.97
2019-04-01T12:11:02.152Z,22.23
2019-04-01T12:13:56.924Z,22.40
2019-04-01T12:16:44.665Z,23.30
2019-04-01T12:19:41.838Z,22.87
2019-04-01T12:22:29.619Z,22.13
2019-04-01T12:25:25.521Z,22.47
2019-04-01T12:28:10.260Z,22.77
2019-04-01T12:59:04.288Z,21.57
2019-04-01T13:06:48.593Z,20.03
2019-04-01T13:10:23.209Z,19.43
2019-04-01T13:14:04.626Z,19.50
2019-04-01T13:16:52.716Z,19.43
2019-04-01T13:21:11.462Z,18.63
2019-04-01T13:24:22.813Z,16.27
2019-04-01T13:28:18.616Z,16.47
2019-04-01T13:51:48.265Z,15.60
2019-04-01T13:59:03.285Z,16.50
2019-04-01T14:02:03.467Z,15.87
2019-04-01T14:06:08.365Z,15.60
2019-04-01T14:13:50.288Z,14.03
2019-04-01T14:16:41.242Z,15.80
2019-04-01T14:19:38.091Z,15.63
2019-04-01T14:22:26.141Z,14.13
2019-04-01T14:25:15.577Z,14.43
2019-04-01T14:28:18.890Z,15.07
2019-04-01T14:31:07.182Z,14.23
2019-04-01T14:33:55.631Z,15.27
2019-04-01T14:36:43.644Z,15.07
2019-04-01T14:39:47.696Z,14.23
2019-04-01T14:42:31.374Z,14.37
2019-04-01T14:45:26.657Z,14.13
2019-04-01T14:48:34.067Z,13.93
2019-04-01T14:51:37.327Z,14.30
2019-04-01T14:54:24.722Z,14.33
2019-04-01T14:57:18.843Z,14.73
2019-04-01T15:00:03.735Z,14.90
2019-04-01T15:03:11.679Z,15.00
2019-04-01T15:05:59.255Z,15.50
2019-04-01T15:08:48.231Z,15.73
2019-04-01T15:11:36.344Z,15.47
2019-04-01T15:14:23.798Z,14.67
2019-04-01T15:17:12.018Z,16.30
2019-04-01T15:20:00.183Z,15.60
2019-04-01T15:22:48.166Z,15.27
2019-04-01T15:25:36.421Z,15.50
2019-04-01T15:28:31.459Z,15.77
2019-04-01T15:31:22.122Z,14.70
2019-04-01T15:34:10.238Z,15.17
2019-04-01T15:37:05.903Z,15.83
2019-04-01T15:39:53.996Z,15.50
2019-04-01T15:42:43.088Z,15.63
2019-04-01T15:45:31.480Z,15.30
2019-04-01T15:48:27.773Z,15.07
2019-04-01T15:51:37.206Z,16.17
2019-04-01T15:54:12.506Z,14.83
2019-04-01T15:56:59.971Z,15.63
2019-04-01T15:59:47.817Z,16.53
2019-04-01T16:02:35.173Z,15.77
2019-04-01T16:05:30.781Z,16.83
2019-04-01T16:08:37.945Z,16.27
2019-04-01T16:11:25.872Z,17.43
2019-04-01T16:14:34.342Z,16.17
2019-04-01T16:17:25.192Z,16.33
2019-04-01T16:20:13.702Z,17.50
2019-04-01T16:23:09.610Z,17.67
2019-04-01T16:25:59.422Z,17.50
2019-04-01T16:28:49.806Z,19.10
2019-04-01T16:31:37.936Z,18.80
2019-04-01T16:34:26.028Z,19.33
2019-04-01T16:40:10.411Z,20.60
2019-04-01T16:46:04.777Z,20.23
2019-04-01T16:48:58.199Z,20.07
2019-04-01T16:51:47.859Z,20.67
2019-04-01T16:54:35.107Z,21.43
2019-04-01T16:57:49.223Z,20.60
2019-04-01T17:00:48.801Z,19.43
2019-04-01T17:03:39.323Z,19.83
2019-04-01T17:06:33.120Z,19.90
2019-04-01T17:09:24.468Z,18.93
2019-04-01T17:12:28.148Z,20.47
2019-04-01T17:15:14.729Z,20.80
2019-04-01T17:18:19.181Z,20.80
2019-04-01T17:21:43.395Z,20.80
2019-04-01T17:24:11.762Z,19.53
2019-04-01T17:27:36.869Z,19.37
2019-04-01T17:30:34.274Z,19.97
2019-04-01T17:33:33.998Z,20.60
2019-04-01T17:36:46.247Z,20.63
2019-04-01T17:39:47.182Z,21.50
2019-04-01T17:42:47.093Z,21.93
2019-04-01T17:45:47.039Z,22.37
2019-04-01T17:48:56.119Z,21.77
2019-04-01T17:55:34.654Z,22.93
2019-04-01T17:58:46.846Z,23.20
2019-04-01T18:01:35.598Z,22.67
2019-04-01T18:04:29.080Z,22.80
2019-04-01T18:07:27.117Z,22.50
2019-04-01T18:10:14.645Z,22.90
2019-04-01T18:13:02.086Z,21.40
2019-04-01T18:15:49.377Z,21.73
2019-04-01T18:18:36.661Z,22.40
2019-04-01T18:21:23.837Z,21.80
2019-04-01T18:24:10.910Z,22.93
2019-04-01T18:26:58.739Z,22.93
2019-04-01T18:29:46.326Z,21.33
2019-04-01T18:32:33.737Z,20.90
2019-04-01T18:35:21.122Z,22.13
2019-04-01T18:38:08.525Z,22.23
2019-04-01T18:40:55.614Z,22.23
2019-04-01T18:43:42.703Z,21.07
2019-04-01T18:46:30.513Z,21.60
2019-04-01T18:49:17.901Z,22.90
2019-04-01T18:52:05.438Z,22.07
2019-04-01T18:54:53.325Z,22.50
2019-04-01T18:57:41.002Z,23.27
2019-04-01T19:00:28.740Z,23.03
2019-04-01T19:03:16.293Z,22.87
2019-04-01T19:06:03.775Z,23.13
2019-04-01T19:08:50.986Z,22.83
2019-04-01T19:11:38.620Z,23.47
2019-04-01T19:14:25.816Z,24.53
2019-04-01T19:17:14.423Z,23.40
2019-04-01T19:20:02.310Z,23.53
2019-04-01T19:23:05.463Z,24.60
2019-04-01T19:25:57.992Z,24.63
2019-04-01T19:28:47.029Z,24.27
2019-04-01T19:31:36.232Z,23.70
2019-04-01T19:34:24.311Z,23.80
2019-04-01T19:37:12.404Z,24.97
2019-04-01T19:40:00.334Z,24.57
2019-04-01T19:42:48.182Z,23.30
2019-04-01T19:45:36.317Z,23.40
2019-04-01T19:48:23.912Z,23.30
2019-04-01T19:51:11.440Z,23.70
2019-04-01T19:54:01.734Z,23.67
2019-04-01T19:56:49.592Z,23.60
2019-04-01T19:59:37.254Z,23.27
2019-04-01T20:02:24.781Z,24.90
2019-04-01T20:05:16.847Z,23.87
2019-04-01T20:08:14.073Z,24.73
2019-04-01T20:11:00.988Z,23.33
2019-04-01T20:13:48.996Z,23.13
2019-04-01T20:16:37.138Z,23.00
2019-04-01T20:19:24.584Z,22.73
2019-04-01T20:22:12.141Z,23.57
2019-04-01T20:24:59.926Z,24.10
2019-04-01T20:27:47.953Z,24.50
2019-04-01T20:30:35.516Z,24.97
2019-04-01T20:33:23.044Z,23.73
2019-04-01T20:36:10.866Z,26.57
2019-04-01T20:38:58.404Z,26.13
2019-04-01T20:41:45.913Z,25.47
2019-04-01T20:44:33.755Z,23.97
2019-04-01T20:47:21.544Z,24.07
2019-04-01T20:50:09.778Z,25.00
2019-04-01T20:52:57.720Z,24.97
2019-04-01T20:55:48.382Z,23.77
2019-04-01T20:58:34.960Z,25.93
2019-04-01T21:01:22.632Z,26.00
2019-04-01T21:04:10.381Z,24.60
2019-04-01T21:06:57.929Z,25.10
2019-04-01T21:09:45.768Z,26.47
2019-04-01T21:12:33.815Z,25.90
2019-04-01T21:15:21.474Z,26.33
2019-04-01T21:18:09.903Z,24.93
2019-04-01T21:20:57.778Z,25.47
2019-04-01T21:23:46.170Z,25.47
2019-04-01T21:26:33.972Z,27.53
2019-04-01T21:29:22.842Z,27.23
2019-04-01T21:32:11.040Z,27.43
2019-04-01T21:34:58.708Z,27.60
2019-04-01T21:37:46.512Z,27.07
2019-04-01T21:40:34.424Z,26.33
2019-04-01T21:43:22.292Z,27.97
2019-04-01T21:46:09.940Z,28.20
2019-04-01T21:48:57.405Z,27.63
2019-04-01T21:51:45.048Z,29.03
2019-04-01T21:54:32.405Z,28.53
2019-04-01T21:57:20.615Z,28.07
2019-04-01T22:00:10.013Z,27.37
2019-04-01T22:02:58.092Z,26.33
2019-04-01T22:05:45.983Z,27.67
2019-04-01T22:08:33.620Z,28.00
2019-04-01T22:11:21.162Z,27.67
2019-04-01T22:14:08.676Z,27.83
2019-04-01T22:16:56.203Z,28.80
2019-04-01T22:19:44.148Z,28.00
2019-04-01T22:22:32.179Z,28.70
2019-04-01T22:25:19.636Z,27.13
2019-04-01T22:28:07.196Z,26.90
2019-04-01T22:30:54.451Z,28.03
2019-04-01T22:33:42.113Z,26.30
2019-04-01T22:36:31.277Z,26.03
2019-04-01T22:39:26.876Z,26.50
2019-04-01T22:42:09.089Z,27.57
2019-04-01T22:44:56.805Z,26.40
2019-04-01T22:47:45.437Z,26.87
2019-04-01T22:50:33.813Z,25.80
2019-04-01T22:53:21.944Z,27.37
2019-04-01T22:56:09.354Z,27.27
2019-04-01T22:58:56.832Z,28.40
2019-04-01T23:01:45.034Z,26.13
2019-04-01T23:04:32.988Z,27.53
2019-04-01T23:07:20.727Z,25.80
2019-04-01T23:10:08.500Z,26.83
2019-04-01T23:12:56.307Z,25.63
2019-04-01T23:15:44.144Z,27.10
2019-04-01T23:18:32.267Z,26.77
2019-04-01T23:21:19.785Z,26.83
2019-04-01T23:24:07.661Z,27.40
2019-04-01T23:26:55.714Z,27.90
2019-04-01T23:29:43.390Z,28.60
2019-04-01T23:32:31.332Z,28.07
2019-04-01T23:35:18.802Z,29.67
2019-04-01T23:38:07.160Z,28.33
2019-04-01T23:40:54.830Z,27.93
2019-04-01T23:43:42.236Z,26.73
2019-04-01T23:46:30.200Z,26.90
2019-04-01T23:49:18.031Z,28.33
2019-04-01T23:52:05.920Z,27.13
2019-04-01T23:54:53.677Z,28.63
2019-04-01T23:57:42.044Z,27.43
